createdAt,value
2017-12-28T00:01:53.531Z,16.50
2017-12-28T00:04:19.809Z,16.60
2017-12-28T00:06:46.845Z,17.13
2017-12-28T00:09:13.875Z,17.50
2017-12-28T00:11:40.151Z,15.43
2017-12-28T00:14:06.583Z,17.43
2017-12-28T00:16:32.885Z,17.30
2017-12-28T00:18:59.964Z,15.70
2017-12-28T00:21:26.287Z,16.53
2017-12-28T00:23:53.358Z,16.93
2017-12-28T00:26:19.614Z,16.00
2017-12-28T00:28:45.914Z,17.50
2017-12-28T00:31:12.236Z,16.70
2017-12-28T00:33:38.550Z,18.40
2017-12-28T00:36:05.598Z,16.63
2017-12-28T00:38:32.627Z,16.50
2017-12-28T00:40:58.915Z,18.20
2017-12-28T00:43:25.192Z,18.40
2017-12-28T00:45:51.539Z,18.17
2017-12-28T00:48:17.850Z,19.00
2017-12-28T00:50:44.118Z,20.67
2017-12-28T00:53:10.443Z,20.90
2017-12-28T00:55:36.736Z,19.70
2017-12-28T00:58:03.049Z,20.60
2017-12-28T01:00:30.047Z,19.70
2017-12-28T01:02:56.357Z,18.53
2017-12-28T01:05:23.439Z,19.37
2017-12-28T01:07:49.716Z,20.03
2017-12-28T01:10:16.159Z,20.80
2017-12-28T01:12:42.485Z,19.70
2017-12-28T01:15:08.838Z,18.67
2017-12-28T01:17:35.854Z,15.40
2017-12-28T01:20:02.202Z,13.53
2017-12-28T01:22:28.495Z,14.77
2017-12-28T01:24:54.780Z,17.87
2017-12-28T01:27:21.074Z,17.90
2017-12-28T01:29:47.393Z,16.60
2017-12-28T01:32:13.748Z,17.80
2017-12-28T01:34:40.054Z,17.87
2017-12-28T01:37:06.332Z,12.13
2017-12-28T01:39:33.474Z,15.83
2017-12-28T01:42:00.765Z,18.13
2017-12-28T01:44:27.052Z,10.07
2017-12-28T01:46:54.061Z,9.47
2017-12-28T01:49:20.341Z,10.93
2017-12-28T01:51:47.383Z,9.87
2017-12-28T01:54:14.415Z,9.40
2017-12-28T01:56:40.720Z,8.60
2017-12-28T01:59:06.983Z,8.37
2017-12-28T02:01:33.249Z,11.00
2017-12-28T02:03:59.542Z,14.13
2017-12-28T02:06:26.569Z,12.13
2017-12-28T02:08:52.876Z,12.30
2017-12-28T02:11:19.143Z,9.93
2017-12-28T02:13:45.471Z,9.30
2017-12-28T02:16:11.724Z,9.17
2017-12-28T02:18:38.753Z,9.83
2017-12-28T02:21:05.012Z,9.50
2017-12-28T02:23:32.044Z,9.33
2017-12-28T02:25:59.070Z,9.07
2017-12-28T02:28:25.314Z,9.60
2017-12-28T02:30:51.612Z,8.17
2017-12-28T02:33:17.903Z,8.80
2017-12-28T02:35:44.160Z,8.80
2017-12-28T02:38:10.466Z,10.13
2017-12-28T02:40:36.752Z,7.97
2017-12-28T02:43:03.094Z,7.93
2017-12-28T02:45:29.319Z,7.13
2017-12-28T02:47:55.643Z,7.00
2017-12-28T02:50:21.939Z,6.67
2017-12-28T02:52:48.195Z,6.83
2017-12-28T02:55:14.537Z,9.00
2017-12-28T02:57:40.819Z,7.30
2017-12-28T03:00:07.075Z,8.43
2017-12-28T03:02:33.389Z,7.97
2017-12-28T03:04:59.743Z,8.67
2017-12-28T03:07:26.027Z,10.30
2017-12-28T03:09:52.265Z,10.97
2017-12-28T03:12:18.539Z,11.10
2017-12-28T03:14:44.827Z,12.50
2017-12-28T03:17:11.056Z,10.03
2017-12-28T03:19:37.387Z,7.07
2017-12-28T03:22:03.645Z,8.43
2017-12-28T03:24:29.951Z,8.50
2017-12-28T03:26:56.348Z,6.90
2017-12-28T03:29:23.366Z,6.50
2017-12-28T03:31:49.694Z,6.03
2017-12-28T03:34:15.973Z,6.37
2017-12-28T03:36:42.266Z,8.30
2017-12-28T03:39:08.586Z,6.23
2017-12-28T03:41:34.830Z,6.67
2017-12-28T03:44:01.152Z,5.70
2017-12-28T03:46:27.458Z,5.73
2017-12-28T03:48:53.960Z,6.70
2017-12-28T03:51:20.256Z,4.47
2017-12-28T03:53:46.506Z,4.77
2017-12-28T03:56:13.557Z,5.00
2017-12-28T03:58:40.573Z,4.80
2017-12-28T04:01:06.835Z,4.73
2017-12-28T04:03:33.835Z,5.37
2017-12-28T04:06:00.099Z,4.50
2017-12-28T04:08:27.081Z,5.20
2017-12-28T04:10:53.349Z,4.17
2017-12-28T04:13:19.611Z,5.17
2017-12-28T04:15:46.593Z,4.20
2017-12-28T04:18:12.882Z,4.03
2017-12-28T04:20:39.134Z,3.97
2017-12-28T04:23:06.155Z,3.97
2017-12-28T04:25:33.184Z,4.70
2017-12-28T04:27:59.441Z,4.53
2017-12-28T04:30:26.472Z,3.60
2017-12-28T04:32:52.738Z,4.10
2017-12-28T04:35:19.760Z,4.20
2017-12-28T04:37:45.994Z,4.50
2017-12-28T04:40:13.040Z,4.37
2017-12-28T04:42:40.122Z,4.60
2017-12-28T04:45:06.451Z,4.60
2017-12-28T04:47:32.670Z,4.40
2017-12-28T04:49:58.966Z,4.67
2017-12-28T04:52:25.253Z,4.83
2017-12-28T04:54:51.612Z,4.03
2017-12-28T04:57:17.881Z,4.43
2017-12-28T04:59:44.873Z,3.47
2017-12-28T05:02:11.175Z,4.13
2017-12-28T05:04:37.474Z,4.67
2017-12-28T05:07:04.521Z,3.70
2017-12-28T05:09:30.771Z,4.03
2017-12-28T05:11:57.823Z,4.00
2017-12-28T05:14:24.138Z,4.27
2017-12-28T05:16:51.203Z,3.40
2017-12-28T05:19:17.447Z,3.10
2017-12-28T05:21:43.905Z,4.13
2017-12-28T05:24:10.184Z,3.20
2017-12-28T05:26:37.187Z,3.37
2017-12-28T05:29:03.529Z,4.40
2017-12-28T05:31:29.816Z,4.40
2017-12-28T05:33:56.252Z,4.20
2017-12-28T05:36:22.532Z,3.60
2017-12-28T05:38:48.829Z,3.37
2017-12-28T05:41:15.146Z,4.23
2017-12-28T05:43:41.438Z,4.93
2017-12-28T05:46:07.750Z,4.43
2017-12-28T05:48:34.132Z,4.43
2017-12-28T05:51:00.401Z,4.60
2017-12-28T05:53:26.659Z,4.53
2017-12-28T05:55:53.749Z,4.53
2017-12-28T05:58:20.038Z,4.67
2017-12-28T06:00:47.101Z,4.30
2017-12-28T06:03:14.134Z,4.60
2017-12-28T06:05:41.203Z,5.30
2017-12-28T06:08:08.247Z,4.90
2017-12-28T06:10:35.332Z,5.10
2017-12-28T06:13:01.592Z,4.40
2017-12-28T06:15:27.947Z,4.60
2017-12-28T06:17:55.022Z,5.33
2017-12-28T06:20:21.328Z,5.00
2017-12-28T06:22:48.344Z,6.27
2017-12-28T06:25:14.680Z,6.23
2017-12-28T06:27:40.942Z,6.00
2017-12-28T06:30:07.994Z,6.30
2017-12-28T06:32:35.000Z,7.13
2017-12-28T06:35:01.289Z,6.10
2017-12-28T06:37:27.637Z,7.60
2017-12-28T06:39:53.943Z,8.90
2017-12-28T06:42:20.174Z,8.10
2017-12-28T06:44:46.457Z,7.07
2017-12-28T06:47:12.737Z,8.57
2017-12-28T06:49:39.041Z,8.50
2017-12-28T06:52:05.347Z,8.80
2017-12-28T06:54:31.633Z,8.90
2017-12-28T06:56:57.931Z,9.83
2017-12-28T06:59:24.967Z,10.20
2017-12-28T07:01:51.235Z,10.50
2017-12-28T07:04:17.565Z,11.07
2017-12-28T07:06:43.811Z,10.00
2017-12-28T07:09:10.088Z,9.97
2017-12-28T07:11:37.133Z,10.97
2017-12-28T07:14:03.410Z,9.80
2017-12-28T07:16:29.648Z,9.77
2017-12-28T07:18:55.928Z,10.87
2017-12-28T07:21:22.200Z,11.10
2017-12-28T07:23:51.881Z,10.03
2017-12-28T07:26:18.181Z,9.83
2017-12-28T07:28:44.443Z,9.40
2017-12-28T07:31:17.306Z,11.53
2017-12-28T07:33:43.732Z,9.77
2017-12-28T07:36:09.971Z,10.73
2017-12-28T07:38:36.224Z,10.50
2017-12-28T07:41:03.300Z,11.80
2017-12-28T07:43:29.634Z,10.10
2017-12-28T07:45:56.056Z,11.30
2017-12-28T07:48:22.323Z,11.57
2017-12-28T07:50:48.620Z,11.70
2017-12-28T07:53:14.922Z,11.70
2017-12-28T07:55:41.924Z,10.87
2017-12-28T07:58:08.196Z,10.97
2017-12-28T08:00:35.208Z,12.27
2017-12-28T08:03:01.509Z,12.13
2017-12-28T08:05:34.777Z,11.10
2017-12-28T08:08:01.796Z,11.77
2017-12-28T08:10:28.072Z,11.87
2017-12-28T08:12:54.338Z,12.50
2017-12-28T08:15:20.600Z,12.33
2017-12-28T08:17:47.631Z,11.67
2017-12-28T08:20:13.879Z,12.60
2017-12-28T08:22:40.918Z,11.70
2017-12-28T08:25:07.195Z,11.20
2017-12-28T08:27:33.472Z,12.23
2017-12-28T08:29:59.708Z,12.60
2017-12-28T08:32:26.011Z,12.67
2017-12-28T08:34:52.315Z,12.27
2017-12-28T08:37:18.606Z,12.40
2017-12-28T08:39:45.738Z,12.63
2017-12-28T08:42:12.050Z,13.00
2017-12-28T08:44:38.339Z,12.80
2017-12-28T08:47:04.649Z,11.67
2017-12-28T08:49:38.744Z,11.27
2017-12-28T08:52:05.099Z,11.50
2017-12-28T08:54:32.205Z,11.20
2017-12-28T08:56:58.510Z,10.50
2017-12-28T08:59:24.818Z,9.00
2017-12-28T09:01:51.067Z,8.40
2017-12-28T09:04:17.381Z,8.47
2017-12-28T09:06:43.675Z,10.90
2017-12-28T09:09:09.917Z,11.93
2017-12-28T09:11:36.252Z,11.10
2017-12-28T09:14:03.322Z,10.97
2017-12-28T09:16:29.633Z,10.20
2017-12-28T09:18:56.681Z,11.47
2017-12-28T09:21:23.705Z,12.13
2017-12-28T09:23:49.996Z,11.50
2017-12-28T09:26:18.607Z,11.80
2017-12-28T09:28:45.668Z,12.67
2017-12-28T09:31:11.900Z,12.97
2017-12-28T09:33:38.192Z,14.30
2017-12-28T09:36:04.479Z,10.67
2017-12-28T09:38:31.450Z,13.70
2017-12-28T09:40:57.770Z,11.07
2017-12-28T09:43:24.804Z,11.60
2017-12-28T09:45:51.851Z,10.60
2017-12-28T09:48:18.851Z,11.33
2017-12-28T09:50:45.221Z,11.27
2017-12-28T09:53:11.532Z,10.03
2017-12-28T09:55:44.686Z,11.30
2017-12-28T09:58:10.944Z,10.40
2017-12-28T10:00:37.253Z,11.97
2017-12-28T10:03:03.562Z,12.33
2017-12-28T10:05:30.568Z,13.60
2017-12-28T10:07:56.904Z,15.10
2017-12-28T10:10:23.187Z,13.73
2017-12-28T10:12:49.516Z,13.43
2017-12-28T10:15:15.829Z,12.40
2017-12-28T10:17:42.934Z,10.87
2017-12-28T10:20:09.268Z,12.80
2017-12-28T10:22:35.559Z,12.70
2017-12-28T10:25:01.825Z,13.10
2017-12-28T10:27:28.149Z,11.17
2017-12-28T10:29:54.461Z,10.03
2017-12-28T10:32:20.791Z,9.67
2017-12-28T10:34:47.123Z,11.40
2017-12-28T10:37:13.401Z,10.13
2017-12-28T10:39:39.707Z,9.33
2017-12-28T10:42:05.989Z,7.50
2017-12-28T10:44:32.288Z,6.43
2017-12-28T10:46:58.600Z,8.63
2017-12-28T10:49:25.086Z,7.90
2017-12-28T10:51:51.361Z,8.97
2017-12-28T10:54:17.675Z,7.80
2017-12-28T10:56:43.935Z,8.23
2017-12-28T10:59:11.110Z,8.83
2017-12-28T11:01:38.124Z,6.73
2017-12-28T11:04:04.408Z,7.40
2017-12-28T11:06:30.646Z,6.67
2017-12-28T11:08:56.882Z,8.00
2017-12-28T11:11:23.170Z,7.70
2017-12-28T11:13:49.484Z,6.63
2017-12-28T11:16:15.784Z,7.83
2017-12-28T11:18:42.043Z,6.80
2017-12-28T11:21:08.345Z,7.27
2017-12-28T11:23:34.605Z,7.20
2017-12-28T11:26:00.896Z,7.80
2017-12-28T11:28:27.138Z,7.87
2017-12-28T11:30:53.391Z,8.00
2017-12-28T11:33:19.691Z,7.50
2017-12-28T11:35:45.983Z,7.00
2017-12-28T11:38:12.991Z,6.03
2017-12-28T11:40:39.283Z,6.47
2017-12-28T11:43:05.585Z,5.67
2017-12-28T11:45:32.603Z,5.43
2017-12-28T11:47:58.891Z,5.13
2017-12-28T11:50:31.401Z,5.20
2017-12-28T11:53:03.857Z,4.77
2017-12-28T11:55:30.967Z,5.27
2017-12-28T11:57:58.011Z,4.70
2017-12-28T12:00:26.897Z,4.03
2017-12-28T12:03:00.193Z,3.70
2017-12-28T12:05:27.303Z,4.80
2017-12-28T12:07:53.593Z,6.87
2017-12-28T12:10:21.771Z,3.77
2017-12-28T12:12:48.070Z,3.40
2017-12-28T12:15:14.395Z,3.77
2017-12-28T12:17:40.680Z,3.20
2017-12-28T12:20:06.964Z,2.90
2017-12-28T12:22:33.227Z,3.53
2017-12-28T12:24:59.550Z,3.30
2017-12-28T12:27:25.818Z,3.03
2017-12-28T12:29:52.130Z,2.40
2017-12-28T12:32:18.387Z,2.73
2017-12-28T12:34:44.676Z,2.67
2017-12-28T12:37:10.992Z,2.73
2017-12-28T12:39:37.966Z,3.43
2017-12-28T12:42:04.278Z,2.60
2017-12-28T12:44:30.550Z,2.73
2017-12-28T12:46:56.798Z,1.97
2017-12-28T12:49:23.097Z,2.97
2017-12-28T12:51:49.382Z,2.03
2017-12-28T12:54:17.347Z,2.77
2017-12-28T12:56:44.351Z,2.50
2017-12-28T12:59:10.585Z,2.73
2017-12-28T13:01:36.869Z,2.20
2017-12-28T13:04:03.186Z,2.20
2017-12-28T13:06:30.229Z,2.40
2017-12-28T13:08:57.312Z,2.80
2017-12-28T13:11:24.313Z,2.10
2017-12-28T13:13:50.600Z,2.27
2017-12-28T13:16:16.918Z,2.20
2017-12-28T13:18:43.222Z,2.60
2017-12-28T13:21:10.230Z,1.73
2017-12-28T13:23:36.548Z,2.53
2017-12-28T13:26:02.812Z,2.27
2017-12-28T13:28:29.828Z,2.40
2017-12-28T13:30:56.105Z,2.63
2017-12-28T13:33:23.091Z,1.60
2017-12-28T13:35:49.408Z,3.10
2017-12-28T13:38:15.677Z,1.70
2017-12-28T13:40:41.983Z,2.40
2017-12-28T13:43:08.280Z,2.23
2017-12-28T13:45:35.357Z,1.97
2017-12-28T13:48:01.651Z,2.40
2017-12-28T13:50:28.715Z,2.13
2017-12-28T13:52:55.033Z,2.27
2017-12-28T13:55:22.064Z,2.23
2017-12-28T13:57:48.343Z,2.23
2017-12-28T14:00:14.673Z,2.70
2017-12-28T14:02:40.910Z,2.23
2017-12-28T14:05:07.204Z,2.73
2017-12-28T14:07:35.044Z,3.10
2017-12-28T14:10:01.366Z,4.10
2017-12-28T14:12:27.696Z,3.50
2017-12-28T14:14:54.018Z,3.60
2017-12-28T14:17:20.360Z,3.30
2017-12-28T14:19:46.698Z,3.00
2017-12-28T14:22:12.968Z,2.60
2017-12-28T14:24:40.004Z,3.53
2017-12-28T14:27:07.025Z,3.67
2017-12-28T14:29:33.284Z,3.47
2017-12-28T14:32:00.303Z,3.20
2017-12-28T14:34:26.562Z,2.97
2017-12-28T14:36:53.567Z,3.27
2017-12-28T14:39:19.855Z,3.67
2017-12-28T14:41:46.119Z,2.77
2017-12-28T14:44:12.441Z,2.93
2017-12-28T14:46:38.739Z,4.37
2017-12-28T14:49:05.011Z,2.90
2017-12-28T14:51:31.307Z,3.20
2017-12-28T14:53:57.644Z,3.33
2017-12-28T14:56:23.906Z,3.03
2017-12-28T14:58:50.232Z,3.20
2017-12-28T15:01:16.483Z,3.50
2017-12-28T15:03:42.794Z,2.67
2017-12-28T15:06:09.088Z,2.57
2017-12-28T15:08:35.368Z,2.63
2017-12-28T15:11:01.701Z,2.33
2017-12-28T15:13:28.018Z,2.80
2017-12-28T15:15:54.328Z,2.20
2017-12-28T15:18:20.613Z,3.10
2017-12-28T15:20:47.636Z,2.93
2017-12-28T15:23:13.976Z,3.67
2017-12-28T15:25:40.994Z,2.90
2017-12-28T15:28:07.300Z,2.10
2017-12-28T15:30:33.577Z,2.60
2017-12-28T15:32:59.857Z,2.70
2017-12-28T15:35:26.143Z,2.93
2017-12-28T15:37:52.427Z,2.67
2017-12-28T15:40:18.781Z,1.77
2017-12-28T15:42:45.091Z,3.00
2017-12-28T15:45:11.391Z,2.40
2017-12-28T15:47:38.451Z,2.10
2017-12-28T15:50:04.747Z,2.00
2017-12-28T15:52:31.021Z,2.03
2017-12-28T15:54:57.309Z,3.20
2017-12-28T15:57:23.639Z,1.77
2017-12-28T15:59:49.895Z,2.50
2017-12-28T16:02:16.981Z,1.80
2017-12-28T16:04:43.279Z,2.17
2017-12-28T16:07:10.322Z,3.30
2017-12-28T16:09:37.422Z,2.30
2017-12-28T16:12:03.720Z,1.93
2017-12-28T16:14:30.054Z,3.30
2017-12-28T16:16:56.360Z,1.73
2017-12-28T16:19:23.422Z,2.67
2017-12-28T16:21:49.786Z,2.17
2017-12-28T16:24:16.212Z,2.80
2017-12-28T16:26:42.525Z,3.60
2017-12-28T16:29:08.772Z,3.50
2017-12-28T16:31:35.173Z,3.07
2017-12-28T16:34:02.189Z,2.13
2017-12-28T16:36:28.521Z,2.37
2017-12-28T16:38:55.549Z,1.40
2017-12-28T16:41:21.805Z,2.40
2017-12-28T16:43:48.135Z,2.80
2017-12-28T16:46:14.463Z,2.47
2017-12-28T16:48:41.499Z,2.43
2017-12-28T16:51:07.825Z,2.30
2017-12-28T16:53:34.121Z,3.17
2017-12-28T16:56:00.457Z,4.00
2017-12-28T16:58:26.728Z,5.30
2017-12-28T17:00:53.051Z,3.73
2017-12-28T17:03:19.384Z,4.00
2017-12-28T17:05:45.694Z,3.33
2017-12-28T17:08:11.971Z,3.90
2017-12-28T17:10:39.026Z,4.47
2017-12-28T17:13:06.742Z,3.20
2017-12-28T17:15:33.100Z,3.70
2017-12-28T17:17:59.399Z,3.90
2017-12-28T17:20:25.680Z,4.00
2017-12-28T17:22:52.687Z,4.10
2017-12-28T17:25:19.188Z,2.97
2017-12-28T17:27:45.465Z,3.67
2017-12-28T17:30:11.759Z,3.70
2017-12-28T17:32:38.108Z,3.40
2017-12-28T17:35:04.427Z,3.10
2017-12-28T17:37:30.689Z,3.80
2017-12-28T17:39:56.944Z,3.03
2017-12-28T17:42:23.233Z,3.20
2017-12-28T17:44:49.553Z,3.07
2017-12-28T17:47:15.870Z,3.27
2017-12-28T17:49:42.173Z,3.73
2017-12-28T17:52:09.225Z,2.83
2017-12-28T17:54:35.680Z,3.00
2017-12-28T17:57:01.931Z,3.40
2017-12-28T17:59:28.248Z,2.90
2017-12-28T18:01:54.563Z,3.00
2017-12-28T18:04:20.913Z,3.30
2017-12-28T18:06:47.250Z,3.60
2017-12-28T18:09:13.542Z,4.03
2017-12-28T18:11:40.596Z,2.87
2017-12-28T18:14:06.960Z,3.00
2017-12-28T18:16:33.236Z,2.67
2017-12-28T18:18:59.561Z,2.20
2017-12-28T18:21:26.304Z,2.10
2017-12-28T18:23:53.348Z,1.93
2017-12-28T18:26:19.629Z,2.77
2017-12-28T18:28:45.982Z,2.40
2017-12-28T18:31:12.288Z,2.40
2017-12-28T18:33:38.518Z,2.27
2017-12-28T18:36:04.889Z,2.00
2017-12-28T18:38:31.220Z,2.10
2017-12-28T18:40:57.484Z,1.90
2017-12-28T18:43:24.569Z,2.60
2017-12-28T18:45:50.824Z,3.70
2017-12-28T18:48:17.209Z,2.30
2017-12-28T18:50:43.504Z,2.10
2017-12-28T18:53:10.081Z,2.40
2017-12-28T18:55:36.363Z,2.40
2017-12-28T18:58:02.675Z,2.87
2017-12-28T19:00:29.611Z,2.47
2017-12-28T19:02:55.921Z,3.33
2017-12-28T19:05:22.249Z,2.50
2017-12-28T19:07:48.651Z,4.10
2017-12-28T19:10:14.916Z,3.47
2017-12-28T19:12:41.291Z,3.27
2017-12-28T19:15:07.598Z,3.47
2017-12-28T19:17:33.962Z,3.20
2017-12-28T19:20:00.553Z,2.53
2017-12-28T19:22:26.908Z,2.77
2017-12-28T19:24:53.212Z,4.20
2017-12-28T19:27:19.588Z,3.40
2017-12-28T19:29:45.923Z,2.50
2017-12-28T19:32:12.272Z,3.00
2017-12-28T19:34:39.331Z,4.60
2017-12-28T19:37:06.424Z,3.30
2017-12-28T19:39:32.715Z,2.90
2017-12-28T19:41:59.009Z,2.70
2017-12-28T19:44:25.385Z,2.87
2017-12-28T19:46:51.694Z,3.00
2017-12-28T19:49:18.828Z,3.37
2017-12-28T19:51:45.209Z,2.67
2017-12-28T19:54:11.600Z,3.23
2017-12-28T19:56:38.134Z,3.77
2017-12-28T19:59:04.492Z,4.20
2017-12-28T20:01:30.822Z,3.13
2017-12-28T20:03:57.876Z,3.60
2017-12-28T20:06:33.003Z,2.30
2017-12-28T20:09:00.060Z,2.70
2017-12-28T20:11:26.748Z,2.97
2017-12-28T20:13:53.060Z,2.90
2017-12-28T20:16:19.422Z,2.83
2017-12-28T20:18:46.226Z,3.30
2017-12-28T20:21:12.634Z,2.70
2017-12-28T20:23:40.762Z,2.97
2017-12-28T20:26:07.096Z,3.13
2017-12-28T20:28:33.364Z,3.50
2017-12-28T20:31:00.414Z,2.40
2017-12-28T20:33:26.730Z,2.97
2017-12-28T20:35:53.022Z,3.43
2017-12-28T20:38:19.371Z,2.70
2017-12-28T20:40:45.759Z,3.17
2017-12-28T20:43:12.081Z,3.10
2017-12-28T20:45:38.403Z,3.47
2017-12-28T20:48:05.518Z,3.33
2017-12-28T20:50:31.843Z,3.23
2017-12-28T20:52:58.203Z,2.80
2017-12-28T20:55:25.273Z,3.27
2017-12-28T20:57:51.553Z,3.70
2017-12-28T21:00:17.884Z,3.70
2017-12-28T21:02:44.267Z,3.60
2017-12-28T21:05:10.597Z,2.93
2017-12-28T21:07:36.872Z,4.33
2017-12-28T21:10:03.166Z,3.87
2017-12-28T21:12:29.539Z,3.33
2017-12-28T21:14:55.818Z,2.83
2017-12-28T21:17:22.084Z,4.60
2017-12-28T21:19:48.462Z,3.30
2017-12-28T21:22:15.542Z,4.23
2017-12-28T21:24:41.840Z,3.07
2017-12-28T21:27:08.884Z,3.70
2017-12-28T21:29:35.196Z,3.67
2017-12-28T21:32:01.486Z,3.50
2017-12-28T21:34:27.855Z,3.77
2017-12-28T21:36:54.143Z,4.13
2017-12-28T21:39:20.419Z,5.10
2017-12-28T21:41:46.737Z,5.70
2017-12-28T21:44:13.038Z,4.47
2017-12-28T21:46:39.325Z,4.00
2017-12-28T21:49:05.763Z,4.10
2017-12-28T21:51:32.772Z,4.20
2017-12-28T21:53:59.111Z,3.53
2017-12-28T21:56:25.441Z,4.43
2017-12-28T21:58:51.743Z,3.67
2017-12-28T22:01:17.999Z,5.10
2017-12-28T22:03:44.427Z,5.03
2017-12-28T22:06:10.725Z,3.40
2017-12-28T22:08:37.216Z,4.20
2017-12-28T22:11:03.492Z,4.23
2017-12-28T22:13:29.722Z,4.40
2017-12-28T22:15:56.041Z,3.73
2017-12-28T22:18:23.072Z,3.93
2017-12-28T22:20:50.086Z,4.10
2017-12-28T22:23:16.484Z,3.97
2017-12-28T22:25:42.764Z,4.27
2017-12-28T22:28:09.136Z,4.57
2017-12-28T22:30:35.426Z,3.73
2017-12-28T22:33:01.734Z,3.50
2017-12-28T22:35:28.026Z,5.30
2017-12-28T22:37:54.276Z,3.77
2017-12-28T22:40:20.607Z,3.53
2017-12-28T22:42:46.888Z,4.37
2017-12-28T22:45:13.166Z,4.73
2017-12-28T22:47:39.478Z,3.97
2017-12-28T22:50:05.802Z,4.17
2017-12-28T22:52:32.134Z,3.13
2017-12-28T22:54:58.384Z,3.97
2017-12-28T22:57:24.732Z,3.37
2017-12-28T22:59:51.021Z,3.23
2017-12-28T23:02:18.056Z,2.63
2017-12-28T23:04:45.078Z,3.60
2017-12-28T23:07:12.125Z,3.10
2017-12-28T23:09:38.435Z,3.60
2017-12-28T23:12:04.755Z,3.33
2017-12-28T23:14:31.058Z,2.93
2017-12-28T23:16:57.413Z,3.10
2017-12-28T23:19:23.687Z,3.43
2017-12-28T23:21:50.019Z,3.63
2017-12-28T23:24:16.343Z,2.80
2017-12-28T23:26:42.691Z,2.63
2017-12-28T23:29:08.966Z,3.33
2017-12-28T23:31:35.305Z,3.23
2017-12-28T23:34:01.605Z,3.90
2017-12-28T23:36:28.629Z,3.00
2017-12-28T23:38:54.903Z,4.40
2017-12-28T23:41:21.194Z,3.40
2017-12-28T23:43:48.598Z,3.83
2017-12-28T23:46:14.860Z,2.67
2017-12-28T23:48:41.146Z,3.40
2017-12-28T23:51:07.460Z,3.33
2017-12-28T23:53:34.499Z,3.57
2017-12-28T23:56:01.546Z,3.43
2017-12-28T23:58:28.606Z,4.57
